sensor_id;sensor_type;location;lat;lon;timestamp;pressure;altitude;pressure_sealevel;temperature;humidity
39267;BME280;24967;51.154;13.812;2023-02-07T00:02:27;101960.16;;;-4.39;67.30
39267;BME280;24967;51.154;13.812;2023-02-07T00:04:53;101962.72;;;-4.53;67.24
39267;BME280;24967;51.154;13.812;2023-02-07T00:07:19;101965.28;;;-4.67;67.26
39267;BME280;24967;51.154;13.812;2023-02-07T00:09:46;101969.59;;;-4.72;67.04
39267;BME280;24967;51.154;13.812;2023-02-07T00:12:12;101964.38;;;-4.73;67.01
39267;BME280;24967;51.154;13.812;2023-02-07T00:14:38;101965.28;;;-4.65;67.13
39267;BME280;24967;51.154;13.812;2023-02-07T00:17:05;101968.72;;;-4.66;67.25
39267;BME280;24967;51.154;13.812;2023-02-07T00:19:32;101971.34;;;-4.62;67.13
39267;BME280;24967;51.154;13.812;2023-02-07T00:21:59;101969.63;;;-4.63;67.26
39267;BME280;24967;51.154;13.812;2023-02-07T00:24:25;101963.53;;;-4.66;66.62
39267;BME280;24967;51.154;13.812;2023-02-07T00:26:52;101962.69;;;-4.67;67.01
39267;BME280;24967;51.154;13.812;2023-02-07T00:29:19;101968.75;;;-4.68;66.85
39267;BME280;24967;51.154;13.812;2023-02-07T00:31:45;101967.88;;;-4.67;66.96
39267;BME280;24967;51.154;13.812;2023-02-07T00:34:14;101965.25;;;-4.70;66.75
39267;BME280;24967;51.154;13.812;2023-02-07T00:36:42;101971.31;;;-4.74;66.71
39267;BME280;24967;51.154;13.812;2023-02-07T00:39:10;101972.19;;;-4.75;66.86
39267;BME280;24967;51.154;13.812;2023-02-07T00:41:37;101975.63;;;-4.73;66.98
39267;BME280;24967;51.154;13.812;2023-02-07T00:44:04;101988.63;;;-4.73;66.70
39267;BME280;24967;51.154;13.812;2023-02-07T00:46:30;101986.91;;;-4.68;67.00
39267;BME280;24967;51.154;13.812;2023-02-07T00:48:57;101986.03;;;-4.67;66.61
39267;BME280;24967;51.154;13.812;2023-02-07T00:51:23;101991.22;;;-4.70;66.73
39267;BME280;24967;51.154;13.812;2023-02-07T00:53:51;101982.56;;;-4.73;66.70
39267;BME280;24967;51.154;13.812;2023-02-07T00:56:18;101981.63;;;-4.85;66.74
39267;BME280;24967;51.154;13.812;2023-02-07T00:58:45;101970.28;;;-5.13;66.77
39267;BME280;24967;51.154;13.812;2023-02-07T01:01:12;101978.97;;;-5.00;66.90
39267;BME280;24967;51.154;13.812;2023-02-07T01:03:38;101983.34;;;-4.96;66.94
39267;BME280;24967;51.154;13.812;2023-02-07T01:06:05;101986.78;;;-4.98;66.96
39267;BME280;24967;51.154;13.812;2023-02-07T01:08:31;101979.00;;;-4.98;67.06
39267;BME280;24967;51.154;13.812;2023-02-07T01:11:01;101972.06;;;-4.99;67.06
39267;BME280;24967;51.154;13.812;2023-02-07T01:13:28;101966.91;;;-4.95;67.39
39267;BME280;24967;51.154;13.812;2023-02-07T01:15:54;101971.22;;;-4.94;67.08
39267;BME280;24967;51.154;13.812;2023-02-07T01:18:21;101968.63;;;-4.91;67.05
39267;BME280;24967;51.154;13.812;2023-02-07T01:20:47;101973.00;;;-4.90;67.12
39267;BME280;24967;51.154;13.812;2023-02-07T01:23:13;101968.66;;;-4.92;66.97
39267;BME280;24967;51.154;13.812;2023-02-07T01:25:40;101980.75;;;-4.94;67.14
39267;BME280;24967;51.154;13.812;2023-02-07T01:28:09;101983.34;;;-4.91;67.00
39267;BME280;24967;51.154;13.812;2023-02-07T01:30:37;101974.69;;;-4.92;67.08
39267;BME280;24967;51.154;13.812;2023-02-07T01:33:04;101965.19;;;-4.88;67.10
39267;BME280;24967;51.154;13.812;2023-02-07T01:35:30;101966.03;;;-4.95;66.68
39267;BME280;24967;51.154;13.812;2023-02-07T01:37:57;101969.50;;;-4.92;66.97
39267;BME280;24967;51.154;13.812;2023-02-07T01:40:23;101971.22;;;-4.98;66.83
39267;BME280;24967;51.154;13.812;2023-02-07T01:42:51;101972.03;;;-5.07;66.52
39267;BME280;24967;51.154;13.812;2023-02-07T01:45:22;101974.63;;;-5.07;66.68
39267;BME280;24967;51.154;13.812;2023-02-07T01:47:50;101981.53;;;-5.09;66.78
39267;BME280;24967;51.154;13.812;2023-02-07T01:50:17;101969.34;;;-5.21;66.29
39267;BME280;24967;51.154;13.812;2023-02-07T01:52:44;101982.31;;;-5.21;66.49
39267;BME280;24967;51.154;13.812;2023-02-07T01:55:11;101978.91;;;-5.17;66.82
39267;BME280;24967;51.154;13.812;2023-02-07T01:57:39;101981.50;;;-5.17;66.53
39267;BME280;24967;51.154;13.812;2023-02-07T02:00:06;101965.06;;;-5.19;66.48
39267;BME280;24967;51.154;13.812;2023-02-07T02:02:35;101957.31;;;-5.14;66.16
39267;BME280;24967;51.154;13.812;2023-02-07T02:05:03;101946.94;;;-5.10;66.15
39267;BME280;24967;51.154;13.812;2023-02-07T02:07:29;101959.00;;;-5.22;66.20
39267;BME280;24967;51.154;13.812;2023-02-07T02:09:57;101939.09;;;-5.25;66.18
39267;BME280;24967;51.154;13.812;2023-02-07T02:12:24;101938.22;;;-5.28;66.45
39267;BME280;24967;51.154;13.812;2023-02-07T02:14:58;101933.00;;;-5.32;66.47
39267;BME280;24967;51.154;13.812;2023-02-07T02:17:27;101942.50;;;-5.35;66.38
39267;BME280;24967;51.154;13.812;2023-02-07T02:22:57;101938.16;;;-5.38;66.49
39267;BME280;24967;51.154;13.812;2023-02-07T02:25:30;101938.16;;;-5.38;66.69
39267;BME280;24967;51.154;13.812;2023-02-07T02:28:09;101937.31;;;-5.38;66.91
39267;BME280;24967;51.154;13.812;2023-02-07T02:30:48;101942.50;;;-5.35;66.53
39267;BME280;24967;51.154;13.812;2023-02-07T02:33:24;101935.56;;;-5.38;66.83
39267;BME280;24967;51.154;13.812;2023-02-07T02:35:55;101933.81;;;-5.39;66.76
39267;BME280;24967;51.154;13.812;2023-02-07T02:38:24;101940.59;;;-5.64;66.62
39267;BME280;24967;51.154;13.812;2023-02-07T02:40:54;101950.06;;;-5.63;67.27
39267;BME280;24967;51.154;13.812;2023-02-07T02:43:24;101951.06;;;-5.50;67.27
39267;BME280;24967;51.154;13.812;2023-02-07T02:45:55;101957.97;;;-5.46;67.10
39267;BME280;24967;51.154;13.812;2023-02-07T02:48:22;101956.25;;;-5.45;67.05
39267;BME280;24967;51.154;13.812;2023-02-07T02:50:50;101949.41;;;-5.37;66.74
39267;BME280;24967;51.154;13.812;2023-02-07T02:53:18;101948.44;;;-5.52;66.89
39267;BME280;24967;51.154;13.812;2023-02-07T02:55:48;101938.09;;;-5.48;66.69
39267;BME280;24967;51.154;13.812;2023-02-07T02:58:20;101943.25;;;-5.56;67.14
39267;BME280;24967;51.154;13.812;2023-02-07T03:00:53;101938.09;;;-5.50;67.00
39267;BME280;24967;51.154;13.812;2023-02-07T03:06:20;101935.50;;;-5.48;66.65
39267;BME280;24967;51.154;13.812;2023-02-07T03:08:53;101929.47;;;-5.47;66.87
39267;BME280;24967;51.154;13.812;2023-02-07T03:11:22;101926.88;;;-5.50;67.12
39267;BME280;24967;51.154;13.812;2023-02-07T03:13:53;101934.66;;;-5.43;66.93
39267;BME280;24967;51.154;13.812;2023-02-07T03:16:26;101924.28;;;-5.43;66.52
39267;BME280;24967;51.154;13.812;2023-02-07T03:18:53;101919.13;;;-5.43;66.93
39267;BME280;24967;51.154;13.812;2023-02-07T03:21:24;101924.28;;;-5.43;66.89
39267;BME280;24967;51.154;13.812;2023-02-07T03:23:52;101944.97;;;-5.52;66.56
39267;BME280;24967;51.154;13.812;2023-02-07T03:26:20;101950.97;;;-5.61;66.38
39267;BME280;24967;51.154;13.812;2023-02-07T03:28:48;101945.75;;;-5.68;66.30
39267;BME280;24967;51.154;13.812;2023-02-07T03:31:15;101947.44;;;-5.72;66.58
39267;BME280;24967;51.154;13.812;2023-02-07T03:33:43;101944.00;;;-5.71;66.89
39267;BME280;24967;51.154;13.812;2023-02-07T03:36:13;101939.69;;;-5.67;66.99
39267;BME280;24967;51.154;13.812;2023-02-07T03:38:42;101941.41;;;-5.66;66.87
39267;BME280;24967;51.154;13.812;2023-02-07T03:41:10;101938.84;;;-5.66;66.93
39267;BME280;24967;51.154;13.812;2023-02-07T03:43:38;101934.50;;;-5.67;67.12
39267;BME280;24967;51.154;13.812;2023-02-07T03:46:06;101936.22;;;-5.69;66.57
39267;BME280;24967;51.154;13.812;2023-02-07T03:48:33;101931.91;;;-5.70;67.00
39267;BME280;24967;51.154;13.812;2023-02-07T03:50:59;101932.78;;;-5.71;67.00
39267;BME280;24967;51.154;13.812;2023-02-07T03:53:25;101938.81;;;-5.71;66.83
39267;BME280;24967;51.154;13.812;2023-02-07T03:55:53;101938.81;;;-5.69;67.13
39267;BME280;24967;51.154;13.812;2023-02-07T03:58:19;101929.31;;;-5.70;67.05
39267;BME280;24967;51.154;13.812;2023-02-07T04:00:45;101940.53;;;-5.74;66.96
39267;BME280;24967;51.154;13.812;2023-02-07T04:03:12;101932.75;;;-5.73;66.85
39267;BME280;24967;51.154;13.812;2023-02-07T04:05:38;101927.53;;;-5.78;67.11
39267;BME280;24967;51.154;13.812;2023-02-07T04:08:04;101929.22;;;-5.81;66.62
39267;BME280;24967;51.154;13.812;2023-02-07T04:10:31;101929.22;;;-5.86;67.14
39267;BME280;24967;51.154;13.812;2023-02-07T04:12:58;101925.78;;;-5.83;67.29
39267;BME280;24967;51.154;13.812;2023-02-07T04:15:25;101931.78;;;-5.86;67.16
39267;BME280;24967;51.154;13.812;2023-02-07T04:17:51;101939.53;;;-5.89;67.35
39267;BME280;24967;51.154;13.812;2023-02-07T04:20:17;101932.63;;;-5.91;67.23
39267;BME280;24967;51.154;13.812;2023-02-07T04:22:44;101920.53;;;-5.88;67.29
39267;BME280;24967;51.154;13.812;2023-02-07T04:25:10;101915.38;;;-5.89;67.16
39267;BME280;24967;51.154;13.812;2023-02-07T04:27:36;101924.91;;;-5.84;67.65
39267;BME280;24967;51.154;13.812;2023-02-07T04:30:04;101923.19;;;-5.83;67.67
39267;BME280;24967;51.154;13.812;2023-02-07T04:32:30;101932.66;;;-5.85;67.28
39267;BME280;24967;51.154;13.812;2023-02-07T04:34:57;101941.28;;;-5.86;67.39
39267;BME280;24967;51.154;13.812;2023-02-07T04:37:23;101940.41;;;-5.88;67.41
39267;BME280;24967;51.154;13.812;2023-02-07T04:39:49;101941.25;;;-5.91;67.86
39267;BME280;24967;51.154;13.812;2023-02-07T04:42:16;101938.63;;;-5.97;67.65
39267;BME280;24967;51.154;13.812;2023-02-07T04:44:42;101949.84;;;-6.01;67.63
39267;BME280;24967;51.154;13.812;2023-02-07T04:47:09;101944.72;;;-5.95;68.13
39267;BME280;24967;51.154;13.812;2023-02-07T04:49:36;101951.59;;;-5.91;67.89
39267;BME280;24967;51.154;13.812;2023-02-07T04:52:02;101944.69;;;-5.98;68.46
39267;BME280;24967;51.154;13.812;2023-02-07T04:54:28;101949.03;;;-5.94;68.59
39267;BME280;24967;51.154;13.812;2023-02-07T04:56:55;101956.78;;;-5.94;68.68
39267;BME280;24967;51.154;13.812;2023-02-07T04:59:21;101949.03;;;-5.94;68.48
39267;BME280;24967;51.154;13.812;2023-02-07T05:01:47;101961.97;;;-5.91;68.78
39267;BME280;24967;51.154;13.812;2023-02-07T05:04:15;101956.78;;;-5.91;68.53
39267;BME280;24967;51.154;13.812;2023-02-07T05:06:41;101955.13;;;-5.86;68.39
39267;BME280;24967;51.154;13.812;2023-02-07T05:09:08;101953.41;;;-5.82;68.43
39267;BME280;24967;51.154;13.812;2023-02-07T05:11:34;101958.56;;;-5.85;68.65
39267;BME280;24967;51.154;13.812;2023-02-07T05:14:00;101957.69;;;-5.84;68.06
39267;BME280;24967;51.154;13.812;2023-02-07T05:16:26;101960.28;;;-5.86;68.29
39267;BME280;24967;51.154;13.812;2023-02-07T05:18:53;101974.91;;;-5.97;67.84
39267;BME280;24967;51.154;13.812;2023-02-07T05:21:20;101966.28;;;-5.97;68.00
39267;BME280;24967;51.154;13.812;2023-02-07T05:23:47;101967.13;;;-5.98;68.37
39267;BME280;24967;51.154;13.812;2023-02-07T05:26:13;101960.03;;;-6.19;68.94
39267;BME280;24967;51.154;13.812;2023-02-07T05:28:41;101966.94;;;-6.18;68.73
39267;BME280;24967;51.154;13.812;2023-02-07T05:31:07;101966.94;;;-6.20;69.15
39267;BME280;24967;51.154;13.812;2023-02-07T05:33:34;101970.44;;;-6.16;68.82
39267;BME280;24967;51.154;13.812;2023-02-07T05:35:59;101973.94;;;-6.10;68.77
39267;BME280;24967;51.154;13.812;2023-02-07T05:38:28;101977.38;;;-6.11;68.56
39267;BME280;24967;51.154;13.812;2023-02-07T05:40:54;101990.38;;;-6.06;68.80
39267;BME280;24967;51.154;13.812;2023-02-07T05:43:20;101979.13;;;-6.07;68.65
39267;BME280;24967;51.154;13.812;2023-02-07T05:45:47;101989.53;;;-6.04;68.30
39267;BME280;24967;51.154;13.812;2023-02-07T05:48:13;101999.03;;;-6.03;68.50
39267;BME280;24967;51.154;13.812;2023-02-07T05:50:39;101992.97;;;-6.03;68.25
39267;BME280;24967;51.154;13.812;2023-02-07T05:53:06;101989.56;;;-6.01;68.47
39267;BME280;24967;51.154;13.812;2023-02-07T05:55:34;101983.47;;;-6.03;68.51
39267;BME280;24967;51.154;13.812;2023-02-07T05:58:00;101977.38;;;-6.09;68.34
39267;BME280;24967;51.154;13.812;2023-02-07T06:00:26;101973.13;;;-6.03;68.46
39267;BME280;24967;51.154;13.812;2023-02-07T06:02:52;101963.66;;;-6.01;68.67
39267;BME280;24967;51.154;13.812;2023-02-07T06:05:19;101952.44;;;-6.01;68.42
39267;BME280;24967;51.154;13.812;2023-02-07T06:07:47;101952.44;;;-6.01;68.55
39267;BME280;24967;51.154;13.812;2023-02-07T06:10:13;101947.28;;;-5.98;68.52
39267;BME280;24967;51.154;13.812;2023-02-07T06:12:41;101947.25;;;-6.00;68.43
39267;BME280;24967;51.154;13.812;2023-02-07T06:15:07;101954.22;;;-5.95;68.15
39267;BME280;24967;51.154;13.812;2023-02-07T06:17:34;101950.75;;;-5.94;68.07
39267;BME280;24967;51.154;13.812;2023-02-07T06:20:00;101941.25;;;-5.92;68.04
39267;BME280;24967;51.154;13.812;2023-02-07T06:22:27;101946.44;;;-5.91;68.03
39267;BME280;24967;51.154;13.812;2023-02-07T06:24:53;101951.63;;;-5.89;67.96
39267;BME280;24967;51.154;13.812;2023-02-07T06:27:19;101949.94;;;-5.86;67.98
39267;BME280;24967;51.154;13.812;2023-02-07T06:29:47;101950.75;;;-5.91;67.64
39267;BME280;24967;51.154;13.812;2023-02-07T06:32:13;101950.75;;;-5.91;67.72
39267;BME280;24967;51.154;13.812;2023-02-07T06:34:40;101960.25;;;-5.92;67.45
39267;BME280;24967;51.154;13.812;2023-02-07T06:37:06;101965.44;;;-5.92;67.54
39267;BME280;24967;51.154;13.812;2023-02-07T06:39:32;101968.00;;;-5.92;67.69
39267;BME280;24967;51.154;13.812;2023-02-07T06:41:59;101970.59;;;-5.92;67.68
39267;BME280;24967;51.154;13.812;2023-02-07T06:44:25;101967.16;;;-5.94;67.64
39267;BME280;24967;51.154;13.812;2023-02-07T06:46:53;101964.56;;;-5.92;67.58
39267;BME280;24967;51.154;13.812;2023-02-07T06:49:19;101972.34;;;-5.91;67.53
39267;BME280;24967;51.154;13.812;2023-02-07T06:51:46;101978.38;;;-5.90;67.68
39267;BME280;24967;51.154;13.812;2023-02-07T06:54:12;101981.84;;;-5.91;67.47
39267;BME280;24967;51.154;13.812;2023-02-07T06:56:38;101984.34;;;-6.02;67.74
39267;BME280;24967;51.154;13.812;2023-02-07T06:59:04;101979.28;;;-5.93;67.75
39267;BME280;24967;51.154;13.812;2023-02-07T07:01:31;101984.41;;;-5.91;67.90
39267;BME280;24967;51.154;13.812;2023-02-07T07:03:59;101985.34;;;-5.86;67.59
39267;BME280;24967;51.154;13.812;2023-02-07T07:06:25;101984.41;;;-5.91;67.68
39267;BME280;24967;51.154;13.812;2023-02-07T07:08:51;101973.91;;;-6.11;67.78
39267;BME280;24967;51.154;13.812;2023-02-07T07:11:18;101983.50;;;-6.00;67.43
39267;BME280;24967;51.154;13.812;2023-02-07T07:13:44;101977.38;;;-6.09;68.16
39267;BME280;24967;51.154;13.812;2023-02-07T07:16:11;101984.19;;;-6.20;68.41
39267;BME280;24967;51.154;13.812;2023-02-07T07:18:37;101987.78;;;-6.06;68.66
39267;BME280;24967;51.154;13.812;2023-02-07T07:21:05;101986.16;;;-5.92;68.39
39267;BME280;24967;51.154;13.812;2023-02-07T07:23:31;101984.50;;;-5.84;68.57
39267;BME280;24967;51.154;13.812;2023-02-07T07:25:58;101994.06;;;-5.72;68.15
39267;BME280;24967;51.154;13.812;2023-02-07T07:28:24;102001.91;;;-5.64;68.17
39267;BME280;24967;51.154;13.812;2023-02-07T07:30:51;101995.06;;;-5.59;67.92
39267;BME280;24967;51.154;13.812;2023-02-07T07:33:17;101987.28;;;-5.59;67.94
39267;BME280;24967;51.154;13.812;2023-02-07T07:35:43;101993.31;;;-5.57;67.96
39267;BME280;24967;51.154;13.812;2023-02-07T07:38:11;102002.00;;;-5.57;68.06
39267;BME280;24967;51.154;13.812;2023-02-07T07:40:37;102002.00;;;-5.52;68.17
39267;BME280;24967;51.154;13.812;2023-02-07T07:43:04;101997.72;;;-5.45;68.41
39267;BME280;24967;51.154;13.812;2023-02-07T07:45:30;102000.34;;;-5.44;68.15
39267;BME280;24967;51.154;13.812;2023-02-07T07:47:56;102008.16;;;-5.36;68.46
39267;BME280;24967;51.154;13.812;2023-02-07T07:50:22;102004.72;;;-5.38;68.97
39267;BME280;24967;51.154;13.812;2023-02-07T07:52:49;102008.19;;;-5.33;69.00
39267;BME280;24967;51.154;13.812;2023-02-07T07:55:16;102011.50;;;-5.51;70.17
39267;BME280;24967;51.154;13.812;2023-02-07T07:57:43;102013.34;;;-5.41;71.02
39267;BME280;24967;51.154;13.812;2023-02-07T08:00:09;102005.63;;;-5.28;71.07
39267;BME280;24967;51.154;13.812;2023-02-07T08:02:36;101997.00;;;-5.24;71.13
39267;BME280;24967;51.154;13.812;2023-02-07T08:05:03;102010.72;;;-5.42;73.05
39267;BME280;24967;51.154;13.812;2023-02-07T08:07:29;102001.31;;;-5.25;73.63
39267;BME280;24967;51.154;13.812;2023-02-07T08:09:55;102006.66;;;-5.00;73.08
39267;BME280;24967;51.154;13.812;2023-02-07T08:12:23;102000.69;;;-4.86;73.00
39267;BME280;24967;51.154;13.812;2023-02-07T08:14:50;102002.44;;;-4.77;72.78
39267;BME280;24967;51.154;13.812;2023-02-07T08:17:16;101994.69;;;-4.63;72.63
39267;BME280;24967;51.154;13.812;2023-02-07T08:19:43;101997.31;;;-4.57;72.75
39267;BME280;24967;51.154;13.812;2023-02-07T08:22:09;102001.69;;;-4.42;72.96
39267;BME280;24967;51.154;13.812;2023-02-07T08:24:36;102006.91;;;-4.27;72.88
39267;BME280;24967;51.154;13.812;2023-02-07T08:27:03;102003.50;;;-4.12;72.79
39267;BME280;24967;51.154;13.812;2023-02-07T08:29:30;102003.53;;;-4.01;73.09
39267;BME280;24967;51.154;13.812;2023-02-07T08:31:57;102008.72;;;-3.87;73.03
39267;BME280;24967;51.154;13.812;2023-02-07T08:34:23;102003.53;;;-3.77;73.15
39267;BME280;24967;51.154;13.812;2023-02-07T08:36:52;102014.78;;;-3.61;73.47
39267;BME280;24967;51.154;13.812;2023-02-07T08:39:19;102017.38;;;-3.52;73.53
39267;BME280;24967;51.154;13.812;2023-02-07T08:41:45;102016.53;;;-3.38;73.68
39267;BME280;24967;51.154;13.812;2023-02-07T08:44:12;102013.06;;;-3.47;74.69
39267;BME280;24967;51.154;13.812;2023-02-07T08:46:39;102017.34;;;-3.24;75.14
39267;BME280;24967;51.154;13.812;2023-02-07T08:49:06;102025.13;;;-3.06;75.27
39267;BME280;24967;51.154;13.812;2023-02-07T08:51:32;102028.59;;;-3.01;75.11
39267;BME280;24967;51.154;13.812;2023-02-07T08:53:58;102024.19;;;-2.77;75.50
39267;BME280;24967;51.154;13.812;2023-02-07T08:56:24;102025.88;;;-2.64;74.78
39267;BME280;24967;51.154;13.812;2023-02-07T08:58:51;102025.03;;;-2.73;75.22
39267;BME280;24967;51.154;13.812;2023-02-07T09:01:17;102014.59;;;-2.66;75.26
39267;BME280;24967;51.154;13.812;2023-02-07T09:03:45;102027.69;;;-2.84;76.31
39267;BME280;24967;51.154;13.812;2023-02-07T09:06:11;102022.31;;;-2.43;75.76
39267;BME280;24967;51.154;13.812;2023-02-07T09:08:37;102011.88;;;-2.41;74.58
39267;BME280;24967;51.154;13.812;2023-02-07T09:11:04;102023.13;;;-2.33;75.16
39267;BME280;24967;51.154;13.812;2023-02-07T09:13:30;102020.47;;;-2.21;74.30
39267;BME280;24967;51.154;13.812;2023-02-07T09:15:57;102008.22;;;-2.08;74.78
39267;BME280;24967;51.154;13.812;2023-02-07T09:18:23;102019.44;;;-1.98;75.44
39267;BME280;24967;51.154;13.812;2023-02-07T09:20:51;102017.38;;;-1.58;74.46
39267;BME280;24967;51.154;13.812;2023-02-07T09:23:17;102004.25;;;-1.49;73.52
39267;BME280;24967;51.154;13.812;2023-02-07T09:25:44;102011.41;;;-1.71;72.99
39267;BME280;24967;51.154;13.812;2023-02-07T09:28:11;102016.75;;;-1.88;73.70
39267;BME280;24967;51.154;13.812;2023-02-07T09:30:38;102008.00;;;-1.82;75.10
39267;BME280;24967;51.154;13.812;2023-02-07T09:33:05;102009.47;;;-1.49;73.93
39267;BME280;24967;51.154;13.812;2023-02-07T09:35:34;102006.63;;;-1.23;73.56
39267;BME280;24967;51.154;13.812;2023-02-07T09:38:02;102009.22;;;-1.21;72.25
39267;BME280;24967;51.154;13.812;2023-02-07T09:40:28;102007.19;;;-0.95;72.49
39267;BME280;24967;51.154;13.812;2023-02-07T09:42:57;101999.22;;;-0.81;76.63
39267;BME280;24967;51.154;13.812;2023-02-07T09:45:28;101994.53;;;-0.54;75.31
39267;BME280;24967;51.154;13.812;2023-02-07T09:47:57;101991.28;;;-0.72;76.97
39267;BME280;24967;51.154;13.812;2023-02-07T09:50:26;101983.44;;;-0.73;74.88
39267;BME280;24967;51.154;13.812;2023-02-07T09:52:55;101986.47;;;-0.37;73.16
39267;BME280;24967;51.154;13.812;2023-02-07T09:55:24;101976.72;;;-0.26;71.90
39267;BME280;24967;51.154;13.812;2023-02-07T09:57:53;101983.31;;;-0.01;71.31
39267;BME280;24967;51.154;13.812;2023-02-07T10:00:22;101986.16;;;-0.16;70.91
39267;BME280;24967;51.154;13.812;2023-02-07T10:02:53;101992.03;;;-0.02;72.78
39267;BME280;24967;51.154;13.812;2023-02-07T10:05:21;101985.97;;;-0.02;70.75
39267;BME280;24967;51.154;13.812;2023-02-07T10:07:51;101985.56;;;0.22;74.78
39267;BME280;24967;51.154;13.812;2023-02-07T10:10:18;101978.25;;;0.43;73.37
39267;BME280;24967;51.154;13.812;2023-02-07T10:12:52;101975.31;;;0.60;69.61
39267;BME280;24967;51.154;13.812;2023-02-07T10:15:32;101969.50;;;0.44;68.63
39267;BME280;24967;51.154;13.812;2023-02-07T10:20:47;101978.09;;;0.52;67.97
39267;BME280;24967;51.154;13.812;2023-02-07T10:23:24;101983.53;;;0.40;68.93
39267;BME280;24967;51.154;13.812;2023-02-07T10:25:57;101986.00;;;0.48;70.71
39267;BME280;24967;51.154;13.812;2023-02-07T10:31:12;101982.03;;;0.75;69.02
39267;BME280;24967;51.154;13.812;2023-02-07T10:33:42;101981.78;;;0.88;68.43
39267;BME280;24967;51.154;13.812;2023-02-07T10:36:12;101997.91;;;0.65;67.61
39267;BME280;24967;51.154;13.812;2023-02-07T10:38:41;101981.31;;;0.66;67.38
39267;BME280;24967;51.154;13.812;2023-02-07T10:41:11;101994.44;;;0.65;70.06
39267;BME280;24967;51.154;13.812;2023-02-07T10:43:38;101996.41;;;1.00;69.05
39267;BME280;24967;51.154;13.812;2023-02-07T10:46:07;101999.72;;;1.08;67.30
39267;BME280;24967;51.154;13.812;2023-02-07T10:48:36;101991.63;;;1.21;67.42
39267;BME280;24967;51.154;13.812;2023-02-07T10:51:03;101999.09;;;1.39;67.12
39267;BME280;24967;51.154;13.812;2023-02-07T10:53:42;102001.44;;;1.53;67.56
39267;BME280;24967;51.154;13.812;2023-02-07T10:56:13;101992.72;;;1.52;65.99
39267;BME280;24967;51.154;13.812;2023-02-07T10:58:39;101991.28;;;1.37;65.14
39267;BME280;24967;51.154;13.812;2023-02-07T11:01:05;101985.06;;;1.42;65.15
39267;BME280;24967;51.154;13.812;2023-02-07T11:03:43;101994.28;;;1.61;64.96
39267;BME280;24967;51.154;13.812;2023-02-07T11:06:10;101985.66;;;1.56;65.38
39267;BME280;24967;51.154;13.812;2023-02-07T11:08:38;101982.75;;;1.70;64.77
39267;BME280;24967;51.154;13.812;2023-02-07T11:11:16;101979.69;;;1.88;64.52
39267;BME280;24967;51.154;13.812;2023-02-07T11:13:49;101976.88;;;1.96;65.54
39267;BME280;24967;51.154;13.812;2023-02-07T11:16:17;101979.75;;;1.85;64.22
39267;BME280;24967;51.154;13.812;2023-02-07T11:18:45;101969.41;;;2.16;63.91
39267;BME280;24967;51.154;13.812;2023-02-07T11:21:20;101966.56;;;2.24;63.56
39267;BME280;24967;51.154;13.812;2023-02-07T11:23:48;101958.69;;;2.24;63.59
39267;BME280;24967;51.154;13.812;2023-02-07T11:26:15;101964.63;;;2.32;65.03
39267;BME280;24967;51.154;13.812;2023-02-07T11:28:42;101958.88;;;2.52;63.75
39267;BME280;24967;51.154;13.812;2023-02-07T11:31:09;101960.31;;;2.29;61.53
39267;BME280;24967;51.154;13.812;2023-02-07T11:33:38;101957.59;;;2.67;62.82
39267;BME280;24967;51.154;13.812;2023-02-07T11:36:10;101952.69;;;2.86;62.42
39267;BME280;24967;51.154;13.812;2023-02-07T11:38:38;101948.28;;;2.88;61.47
39267;BME280;24967;51.154;13.812;2023-02-07T11:41:05;101951.84;;;2.85;61.15
39267;BME280;24967;51.154;13.812;2023-02-07T11:43:32;101956.59;;;2.72;61.02
39267;BME280;24967;51.154;13.812;2023-02-07T11:46:00;101948.66;;;2.74;59.68
39267;BME280;24967;51.154;13.812;2023-02-07T11:48:27;101947.53;;;2.83;60.09
39267;BME280;24967;51.154;13.812;2023-02-07T11:50:55;101947.59;;;3.12;59.35
39267;BME280;24967;51.154;13.812;2023-02-07T11:53:24;101944.41;;;3.31;58.90
39267;BME280;24967;51.154;13.812;2023-02-07T11:55:53;101945.53;;;3.22;59.63
39267;BME280;24967;51.154;13.812;2023-02-07T11:58:23;101937.28;;;3.34;58.59
39267;BME280;24967;51.154;13.812;2023-02-07T12:00:51;101935.50;;;3.35;56.51
39267;BME280;24967;51.154;13.812;2023-02-07T12:03:20;101937.00;;;3.43;56.54
39267;BME280;24967;51.154;13.812;2023-02-07T12:05:48;101935.59;;;3.02;58.44
39267;BME280;24967;51.154;13.812;2023-02-07T12:08:17;101937.09;;;3.11;59.26
39267;BME280;24967;51.154;13.812;2023-02-07T12:10:47;101936.56;;;3.29;58.89
39267;BME280;24967;51.154;13.812;2023-02-07T12:13:16;101929.66;;;3.83;60.24
39267;BME280;24967;51.154;13.812;2023-02-07T12:15:46;101929.59;;;4.11;60.02
39267;BME280;24967;51.154;13.812;2023-02-07T12:18:15;101925.03;;;4.18;56.95
39267;BME280;24967;51.154;13.812;2023-02-07T12:20:49;101917.34;;;4.36;55.86
39267;BME280;24967;51.154;13.812;2023-02-07T12:23:19;101919.59;;;4.47;55.93
39267;BME280;24967;51.154;13.812;2023-02-07T12:25:49;101910.78;;;4.48;54.81
39267;BME280;24967;51.154;13.812;2023-02-07T12:28:20;101913.59;;;4.17;52.63
39267;BME280;24967;51.154;13.812;2023-02-07T12:30:50;101903.00;;;4.45;55.05
39267;BME280;24967;51.154;13.812;2023-02-07T12:33:19;101900.47;;;4.42;54.03
39267;BME280;24967;51.154;13.812;2023-02-07T12:35:52;101899.66;;;4.40;53.64
39267;BME280;24967;51.154;13.812;2023-02-07T12:38:23;101902.13;;;4.45;53.48
39267;BME280;24967;51.154;13.812;2023-02-07T12:40:52;101894.09;;;4.73;53.54
39267;BME280;24967;51.154;13.812;2023-02-07T12:43:20;101898.84;;;4.13;50.59
39267;BME280;24967;51.154;13.812;2023-02-07T12:45:53;101895.84;;;4.24;52.91
39267;BME280;24967;51.154;13.812;2023-02-07T12:48:26;101905.59;;;4.20;52.82
39267;BME280;24967;51.154;13.812;2023-02-07T12:50:58;101911.34;;;4.33;52.75
39267;BME280;24967;51.154;13.812;2023-02-07T12:53:41;101911.47;;;4.28;53.12
39267;BME280;24967;51.154;13.812;2023-02-07T12:56:16;101907.50;;;4.42;54.41
39267;BME280;24967;51.154;13.812;2023-02-07T12:58:49;101898.97;;;4.60;54.37